createdAt,value
2023-02-16T00:00:34.557Z,58.37
2023-02-16T00:03:02.156Z,58.97
2023-02-16T00:05:30.920Z,47.93
2023-02-16T00:07:58.842Z,53.93
2023-02-16T00:10:27.150Z,57.80
2023-02-16T00:13:13.149Z,52.93
2023-02-16T00:15:41.155Z,61.80
2023-02-16T00:18:26.493Z,55.73
2023-02-16T00:20:54.006Z,63.77
2023-02-16T00:23:21.421Z,56.70
2023-02-16T00:25:48.938Z,67.03
2023-02-16T00:28:18.742Z,54.20
2023-02-16T00:30:46.542Z,60.27
2023-02-16T00:33:18.450Z,51.20
2023-02-16T00:35:46.008Z,51.10
2023-02-16T00:38:14.010Z,68.43
2023-02-16T00:40:41.965Z,58.87
2023-02-16T00:43:20.382Z,59.90
2023-02-16T00:45:47.844Z,53.53
2023-02-16T00:48:15.664Z,59.17
2023-02-16T00:50:43.199Z,51.77
2023-02-16T00:53:11.739Z,49.27
2023-02-16T00:55:40.274Z,59.87
2023-02-16T00:58:25.663Z,57.83
2023-02-16T01:00:54.407Z,61.97
2023-02-16T01:03:24.179Z,60.13
2023-02-16T01:06:11.758Z,54.93
2023-02-16T01:08:57.829Z,60.87
2023-02-16T01:11:26.750Z,56.83
2023-02-16T01:13:54.670Z,69.27
2023-02-16T01:16:23.471Z,66.07
2023-02-16T01:18:51.377Z,96.13
2023-02-16T01:21:21.895Z,80.27
2023-02-16T01:23:49.428Z,81.97
2023-02-16T01:26:18.187Z,155.97
2023-02-16T01:28:47.501Z,201.00
2023-02-16T01:31:17.197Z,168.53
2023-02-16T01:33:45.108Z,357.60
2023-02-16T01:36:35.143Z,323.97
2023-02-16T01:39:03.389Z,960.83
2023-02-16T01:41:53.775Z,687.87
2023-02-16T01:44:39.694Z,520.90
2023-02-16T01:47:25.716Z,265.20
2023-02-16T01:49:53.198Z,140.90
2023-02-16T01:52:27.479Z,78.73
2023-02-16T01:54:58.977Z,96.23
2023-02-16T01:57:50.495Z,68.57
2023-02-16T02:00:22.987Z,80.83
2023-02-16T02:02:53.467Z,69.23
2023-02-16T02:05:35.171Z,58.43
2023-02-16T02:08:25.871Z,118.63
2023-02-16T02:11:28.741Z,199.10
2023-02-16T02:14:01.520Z,239.23
2023-02-16T02:16:29.614Z,172.07
2023-02-16T02:18:57.232Z,119.43
2023-02-16T02:21:50.083Z,416.40
2023-02-16T02:24:41.237Z,259.67
2023-02-16T02:27:28.916Z,527.57
2023-02-16T02:30:19.243Z,806.30
2023-02-16T02:33:07.399Z,1029.57
2023-02-16T02:35:52.652Z,463.63
2023-02-16T02:38:34.287Z,412.03
2023-02-16T02:41:13.225Z,279.87
2023-02-16T02:43:45.711Z,142.37
2023-02-16T02:46:24.844Z,283.20
2023-02-16T02:48:52.523Z,89.33
2023-02-16T02:51:30.694Z,284.40
2023-02-16T02:54:40.886Z,232.50
2023-02-16T02:57:53.741Z,545.37
2023-02-16T03:00:43.282Z,263.80
2023-02-16T03:03:27.843Z,195.67
2023-02-16T03:05:58.064Z,110.10
2023-02-16T03:08:28.475Z,553.77
2023-02-16T03:11:17.358Z,366.73
2023-02-16T03:13:47.620Z,599.23
2023-02-16T03:16:21.041Z,725.17
2023-02-16T03:19:07.288Z,1041.50
2023-02-16T03:21:55.111Z,369.97
2023-02-16T03:24:46.960Z,680.47
2023-02-16T03:27:36.168Z,772.10
2023-02-16T03:30:05.659Z,654.13
2023-02-16T03:32:33.299Z,413.57
2023-02-16T03:35:00.789Z,242.73
2023-02-16T03:37:28.359Z,227.43
2023-02-16T03:40:14.643Z,441.77
2023-02-16T03:42:49.014Z,854.23
2023-02-16T03:45:16.556Z,577.60
2023-02-16T03:47:43.982Z,1304.67
2023-02-16T03:50:11.522Z,827.37
2023-02-16T03:52:38.949Z,492.10
2023-02-16T03:55:06.634Z,830.67
2023-02-16T03:57:34.032Z,612.27
2023-02-16T04:00:01.516Z,753.57
2023-02-16T04:02:29.684Z,611.67
2023-02-16T04:04:58.313Z,728.03
2023-02-16T04:07:25.814Z,664.13
2023-02-16T04:09:53.290Z,669.77
2023-02-16T04:12:39.338Z,799.50
2023-02-16T04:15:11.556Z,765.30
2023-02-16T04:17:39.052Z,705.03
2023-02-16T04:20:09.878Z,578.27
2023-02-16T04:22:37.375Z,393.27
2023-02-16T04:25:04.932Z,524.63
2023-02-16T04:27:32.428Z,586.93
2023-02-16T04:29:59.846Z,764.43
2023-02-16T04:32:27.379Z,926.03
2023-02-16T04:34:54.926Z,253.93
2023-02-16T04:37:22.443Z,762.50
2023-02-16T04:39:49.938Z,512.93
2023-02-16T04:42:17.453Z,569.87
2023-02-16T04:44:44.859Z,447.87
2023-02-16T04:47:12.488Z,301.50
2023-02-16T04:49:39.972Z,578.40
2023-02-16T04:52:07.482Z,419.37
2023-02-16T04:54:34.929Z,705.63
2023-02-16T04:57:02.394Z,193.17
2023-02-16T04:59:29.802Z,283.60
2023-02-16T05:01:57.786Z,808.80
2023-02-16T05:04:25.510Z,491.77
2023-02-16T05:06:53.004Z,258.30
2023-02-16T05:09:20.403Z,372.97
2023-02-16T05:12:06.751Z,262.10
2023-02-16T05:14:41.856Z,589.77
2023-02-16T05:17:27.533Z,273.00
2023-02-16T05:19:56.491Z,764.10
2023-02-16T05:22:24.293Z,553.77
2023-02-16T05:24:51.812Z,808.63
2023-02-16T05:27:23.934Z,535.23
2023-02-16T05:29:51.795Z,343.23
2023-02-16T05:32:19.606Z,376.53
2023-02-16T05:34:47.172Z,676.00
2023-02-16T05:37:15.459Z,598.17
2023-02-16T05:39:42.993Z,862.07
2023-02-16T05:42:10.514Z,810.33
2023-02-16T05:44:38.583Z,575.73
2023-02-16T05:47:06.111Z,943.47
2023-02-16T05:49:33.607Z,699.73
2023-02-16T05:52:01.032Z,871.63
2023-02-16T05:54:28.614Z,811.17
2023-02-16T05:56:56.116Z,731.80
2023-02-16T05:59:23.649Z,760.93
2023-02-16T06:01:52.423Z,553.30
2023-02-16T06:04:20.726Z,491.27
2023-02-16T06:06:48.529Z,505.47
2023-02-16T06:09:16.066Z,565.53
2023-02-16T06:11:43.718Z,576.40
2023-02-16T06:14:13.846Z,948.97
2023-02-16T06:16:42.111Z,690.97
2023-02-16T06:19:10.361Z,806.90
2023-02-16T06:21:38.327Z,346.10
2023-02-16T06:24:06.039Z,167.60
2023-02-16T06:26:33.503Z,549.53
2023-02-16T06:29:00.996Z,325.23
2023-02-16T06:31:28.834Z,760.73
2023-02-16T06:33:57.151Z,264.30
2023-02-16T06:36:25.403Z,233.70
2023-02-16T06:38:52.854Z,672.30
2023-02-16T06:41:35.792Z,466.60
2023-02-16T06:44:04.384Z,219.23
2023-02-16T06:46:32.112Z,163.80
2023-02-16T06:48:59.953Z,138.00
2023-02-16T06:51:27.693Z,295.60
2023-02-16T06:53:55.225Z,385.63
2023-02-16T06:56:22.723Z,155.67
2023-02-16T06:58:50.588Z,136.10
2023-02-16T07:01:25.894Z,219.13
2023-02-16T07:03:54.134Z,170.17
2023-02-16T07:06:22.330Z,280.07
2023-02-16T07:08:49.861Z,178.13
2023-02-16T07:11:17.561Z,271.03
2023-02-16T07:13:45.020Z,261.90
2023-02-16T07:16:12.882Z,236.93
2023-02-16T07:18:40.491Z,266.00
2023-02-16T07:21:08.150Z,361.20
2023-02-16T07:23:35.593Z,255.20
2023-02-16T07:26:03.039Z,298.37
2023-02-16T07:28:30.521Z,365.93
2023-02-16T07:30:58.062Z,253.87
2023-02-16T07:33:25.557Z,123.37
2023-02-16T07:35:53.259Z,174.90
2023-02-16T07:38:20.706Z,101.57
2023-02-16T07:40:48.179Z,418.43
2023-02-16T07:43:15.627Z,88.83
2023-02-16T07:45:50.327Z,111.37
2023-02-16T07:48:17.862Z,189.73
2023-02-16T07:50:45.312Z,164.30
2023-02-16T07:53:13.087Z,116.70
2023-02-16T07:55:41.494Z,167.43
2023-02-16T07:58:09.089Z,85.90
2023-02-16T08:00:36.750Z,223.97
2023-02-16T08:03:04.900Z,186.33
2023-02-16T08:05:32.413Z,243.90
2023-02-16T08:08:00.044Z,379.50
2023-02-16T08:10:27.564Z,144.17
2023-02-16T08:12:54.972Z,457.83
2023-02-16T08:15:23.979Z,184.23
2023-02-16T08:17:51.421Z,357.27
2023-02-16T08:20:18.930Z,353.87
2023-02-16T08:22:47.218Z,151.07
2023-02-16T08:25:16.063Z,90.97
2023-02-16T08:27:43.511Z,116.50
2023-02-16T08:30:13.013Z,237.63
2023-02-16T08:32:41.406Z,152.10
2023-02-16T08:35:09.145Z,136.10
2023-02-16T08:37:39.079Z,123.10
2023-02-16T08:40:09.042Z,106.47
2023-02-16T08:42:37.496Z,131.00
2023-02-16T08:45:06.820Z,271.73
2023-02-16T08:47:36.538Z,142.43
2023-02-16T08:50:03.985Z,67.80
2023-02-16T08:52:31.453Z,203.77
2023-02-16T08:54:58.914Z,104.23
2023-02-16T08:57:26.333Z,95.63
2023-02-16T09:00:13.792Z,124.77
2023-02-16T09:02:42.044Z,77.37
2023-02-16T09:05:10.167Z,128.30
2023-02-16T09:07:37.619Z,79.73
2023-02-16T09:10:06.132Z,162.33
2023-02-16T09:12:35.385Z,133.87
2023-02-16T09:15:03.258Z,255.87
2023-02-16T09:17:31.173Z,150.47
2023-02-16T09:19:58.575Z,379.70
2023-02-16T09:22:27.498Z,84.67
2023-02-16T09:24:54.912Z,102.77
2023-02-16T09:27:22.405Z,65.30
2023-02-16T09:29:50.436Z,147.97
2023-02-16T09:32:20.743Z,82.40
2023-02-16T09:34:50.263Z,111.03
2023-02-16T09:37:17.883Z,54.33
2023-02-16T09:39:45.303Z,90.70
2023-02-16T09:42:21.810Z,75.27
2023-02-16T09:44:54.726Z,47.73
2023-02-16T09:47:33.324Z,51.23
2023-02-16T09:50:38.204Z,51.60
2023-02-16T09:53:34.882Z,48.27
2023-02-16T09:56:08.269Z,44.80
2023-02-16T09:58:43.213Z,44.07
2023-02-16T10:01:35.012Z,45.33
2023-02-16T10:04:24.822Z,44.63
2023-02-16T10:06:58.525Z,49.00
2023-02-16T10:09:28.004Z,40.07
2023-02-16T10:12:04.892Z,45.50
2023-02-16T10:14:58.363Z,43.63
2023-02-16T10:17:46.161Z,43.13
2023-02-16T10:20:22.480Z,42.77
2023-02-16T10:23:10.308Z,39.73
2023-02-16T10:25:42.993Z,45.30
2023-02-16T10:28:22.844Z,43.37
2023-02-16T10:30:52.640Z,45.87
2023-02-16T10:33:33.916Z,41.03
2023-02-16T10:36:02.355Z,37.67
2023-02-16T10:38:51.547Z,37.13
2023-02-16T10:41:28.137Z,39.27
2023-02-16T10:44:02.090Z,41.40
2023-02-16T10:46:33.209Z,42.80
2023-02-16T10:49:02.232Z,41.57
2023-02-16T10:51:33.758Z,41.93
2023-02-16T10:54:17.306Z,43.27
2023-02-16T10:56:49.698Z,38.03
2023-02-16T10:59:24.497Z,39.57
2023-02-16T11:02:15.233Z,33.97
2023-02-16T11:04:43.821Z,34.53
2023-02-16T11:07:13.120Z,32.90
2023-02-16T11:09:41.661Z,34.83
2023-02-16T11:12:39.479Z,33.03
2023-02-16T11:15:36.020Z,33.33
2023-02-16T11:18:08.702Z,36.43
2023-02-16T11:20:51.533Z,33.97
2023-02-16T11:23:51.646Z,38.40
2023-02-16T11:26:26.543Z,41.90
2023-02-16T11:28:54.230Z,30.53
2023-02-16T11:31:40.862Z,34.43
2023-02-16T11:34:13.462Z,33.00
2023-02-16T11:36:42.914Z,34.87
2023-02-16T11:39:28.173Z,35.33
2023-02-16T11:41:57.346Z,31.27
2023-02-16T11:44:32.399Z,31.57
2023-02-16T11:47:03.874Z,32.43
2023-02-16T11:49:33.726Z,30.50
2023-02-16T11:52:01.818Z,33.03
2023-02-16T11:54:29.416Z,34.27
2023-02-16T11:57:04.644Z,31.37
2023-02-16T11:59:36.062Z,28.50
2023-02-16T12:02:18.885Z,26.57
2023-02-16T12:05:01.418Z,39.33
2023-02-16T12:07:51.599Z,25.70
2023-02-16T12:10:26.518Z,28.87
2023-02-16T12:13:00.822Z,35.70
2023-02-16T12:15:45.439Z,25.00
2023-02-16T12:18:28.254Z,24.07
2023-02-16T12:21:17.315Z,27.87
2023-02-16T12:23:55.915Z,28.50
2023-02-16T12:26:49.664Z,26.10
2023-02-16T12:29:49.580Z,27.37
2023-02-16T12:32:47.062Z,28.60
2023-02-16T12:35:27.011Z,27.43
2023-02-16T12:38:04.677Z,25.00
2023-02-16T12:40:47.352Z,23.40
2023-02-16T12:43:33.816Z,28.67
2023-02-16T12:46:04.341Z,29.43
2023-02-16T12:48:57.269Z,26.67
2023-02-16T12:51:51.619Z,22.63
2023-02-16T12:54:31.502Z,25.73
2023-02-16T12:57:02.271Z,28.73
2023-02-16T12:59:50.105Z,24.70
2023-02-16T13:02:23.331Z,24.97
2023-02-16T13:04:55.747Z,24.30
2023-02-16T13:07:33.491Z,26.93
2023-02-16T13:10:05.505Z,23.83
2023-02-16T13:12:50.765Z,20.80
2023-02-16T13:15:23.711Z,24.40
2023-02-16T13:17:56.872Z,27.10
2023-02-16T13:20:25.027Z,22.60
2023-02-16T13:23:15.693Z,22.13
2023-02-16T13:26:03.817Z,23.10
2023-02-16T13:28:52.685Z,21.27
2023-02-16T13:31:54.119Z,20.40
2023-02-16T13:34:41.362Z,22.43
2023-02-16T13:37:28.211Z,20.47
2023-02-16T13:40:14.040Z,18.70
2023-02-16T13:43:17.007Z,19.83
2023-02-16T13:45:54.624Z,23.73
2023-02-16T13:48:26.824Z,24.80
2023-02-16T13:51:05.466Z,23.50
2023-02-16T13:53:37.848Z,22.87
2023-02-16T13:56:37.733Z,20.00
2023-02-16T13:59:42.003Z,25.13
2023-02-16T14:02:13.094Z,21.67
2023-02-16T14:05:01.724Z,24.50
2023-02-16T14:07:35.956Z,18.67
2023-02-16T14:10:03.725Z,20.73
2023-02-16T14:12:34.372Z,23.10
2023-02-16T14:15:03.400Z,20.20
2023-02-16T14:17:33.003Z,25.13
2023-02-16T14:20:30.180Z,20.20
2023-02-16T14:23:00.316Z,23.30
2023-02-16T14:25:32.738Z,19.83
2023-02-16T14:28:05.921Z,21.67
2023-02-16T14:30:52.063Z,18.23
2023-02-16T14:33:22.540Z,23.03
2023-02-16T14:36:19.122Z,22.93
2023-02-16T14:38:47.669Z,23.60
2023-02-16T14:41:44.410Z,20.17
2023-02-16T14:44:22.870Z,21.10
2023-02-16T14:47:04.270Z,19.50
2023-02-16T14:49:52.094Z,26.10
2023-02-16T14:52:38.780Z,20.67
2023-02-16T14:55:35.813Z,25.10
2023-02-16T14:58:06.796Z,20.93
2023-02-16T15:00:39.774Z,21.27
2023-02-16T15:03:18.018Z,20.37
2023-02-16T15:05:51.366Z,27.43
2023-02-16T15:08:22.581Z,26.00
2023-02-16T15:10:54.296Z,22.07
2023-02-16T15:13:27.354Z,21.60
2023-02-16T15:15:57.053Z,26.70
2023-02-16T15:18:26.203Z,24.03
2023-02-16T15:20:54.804Z,23.20
2023-02-16T15:23:24.137Z,23.83
2023-02-16T15:26:15.022Z,24.03
2023-02-16T15:28:42.911Z,22.00
2023-02-16T15:31:18.285Z,23.17
2023-02-16T15:34:07.557Z,22.13
2023-02-16T15:36:36.712Z,24.40
2023-02-16T15:39:05.878Z,25.83
2023-02-16T15:41:35.271Z,26.10
2023-02-16T15:44:03.939Z,21.27
2023-02-16T15:46:42.186Z,25.80
2023-02-16T15:49:42.532Z,24.53
2023-02-16T15:52:14.352Z,25.37
2023-02-16T15:54:42.432Z,23.70
2023-02-16T15:57:39.073Z,29.63
2023-02-16T16:00:09.386Z,22.17
2023-02-16T16:02:47.647Z,22.40
2023-02-16T16:05:29.269Z,20.67
2023-02-16T16:07:57.750Z,22.10
2023-02-16T16:10:27.197Z,24.43
2023-02-16T16:12:57.302Z,21.87
2023-02-16T16:15:25.943Z,26.93
2023-02-16T16:17:54.077Z,59.17
2023-02-16T16:20:36.621Z,83.97
2023-02-16T16:23:08.334Z,38.23
2023-02-16T16:25:40.420Z,34.73
2023-02-16T16:28:09.567Z,37.17
2023-02-16T16:30:43.909Z,30.00
2023-02-16T16:33:15.753Z,26.13
2023-02-16T16:35:48.120Z,28.60
2023-02-16T16:38:23.776Z,25.37
2023-02-16T16:40:53.294Z,27.83
2023-02-16T16:43:21.260Z,24.47
2023-02-16T16:45:50.043Z,26.30
2023-02-16T16:48:23.104Z,23.73
2023-02-16T16:50:50.583Z,30.17
2023-02-16T16:53:39.757Z,21.70
2023-02-16T16:56:11.270Z,27.07
2023-02-16T16:58:38.931Z,29.07
2023-02-16T17:01:06.564Z,23.23
2023-02-16T17:03:34.087Z,25.60
2023-02-16T17:06:01.519Z,24.57
2023-02-16T17:08:29.051Z,24.10
2023-02-16T17:10:56.666Z,24.63
2023-02-16T17:13:24.163Z,28.70
2023-02-16T17:15:59.680Z,28.38
2023-02-16T17:18:27.282Z,25.53
2023-02-16T17:20:54.735Z,22.13
2023-02-16T17:23:23.029Z,23.10
2023-02-16T17:25:50.981Z,24.30
2023-02-16T17:28:19.713Z,22.97
2023-02-16T17:30:47.366Z,22.27
2023-02-16T17:33:15.182Z,25.47
2023-02-16T17:35:43.441Z,26.77
2023-02-16T17:38:12.905Z,22.97
2023-02-16T17:40:41.420Z,25.27
2023-02-16T17:43:12.757Z,26.60
2023-02-16T17:45:40.689Z,24.50
2023-02-16T17:48:08.137Z,21.00
2023-02-16T17:50:36.060Z,24.20
2023-02-16T17:53:03.519Z,26.47
2023-02-16T17:55:31.485Z,25.07
2023-02-16T17:57:58.917Z,26.80
2023-02-16T18:00:29.153Z,26.07
2023-02-16T18:02:56.544Z,24.13
2023-02-16T18:05:24.191Z,23.23
2023-02-16T18:07:52.446Z,30.23
2023-02-16T18:10:31.301Z,24.83
2023-02-16T18:12:59.187Z,23.70
2023-02-16T18:15:26.622Z,26.40
2023-02-16T18:17:55.459Z,25.97
2023-02-16T18:20:23.000Z,24.40
2023-02-16T18:22:50.820Z,27.37
2023-02-16T18:25:18.337Z,24.53
2023-02-16T18:27:45.941Z,24.43
2023-02-16T18:30:14.216Z,33.40
2023-02-16T18:32:45.670Z,27.87
2023-02-16T18:35:14.146Z,30.50
2023-02-16T18:37:42.013Z,28.87
2023-02-16T18:40:10.770Z,25.30
2023-02-16T18:42:38.444Z,27.60
2023-02-16T18:45:06.661Z,25.30
2023-02-16T18:47:34.143Z,28.03
2023-02-16T18:50:01.668Z,25.57
2023-02-16T18:52:29.081Z,25.17
2023-02-16T18:54:56.602Z,27.60
2023-02-16T18:57:25.013Z,24.87
2023-02-16T18:59:52.465Z,25.07
2023-02-16T19:02:19.962Z,25.67
2023-02-16T19:04:48.082Z,25.80
2023-02-16T19:07:15.554Z,27.43
2023-02-16T19:09:43.042Z,21.47
2023-02-16T19:12:10.534Z,23.17
2023-02-16T19:14:38.241Z,27.97
2023-02-16T19:17:05.660Z,26.47
2023-02-16T19:19:33.309Z,24.10
2023-02-16T19:22:00.796Z,27.47
2023-02-16T19:24:28.393Z,25.57
2023-02-16T19:26:55.877Z,27.37
2023-02-16T19:29:23.592Z,28.23
2023-02-16T19:31:51.164Z,28.83
2023-02-16T19:34:18.873Z,27.10
2023-02-16T19:36:46.408Z,22.70
2023-02-16T19:39:13.966Z,34.53
2023-02-16T19:41:46.427Z,24.50
2023-02-16T19:44:14.482Z,22.80
2023-02-16T19:46:42.463Z,20.93
2023-02-16T19:49:12.560Z,19.67
2023-02-16T19:51:40.008Z,30.30
2023-02-16T19:54:07.591Z,18.50
2023-02-16T19:56:36.463Z,21.07
2023-02-16T19:59:04.013Z,23.70
2023-02-16T20:01:31.516Z,22.40
2023-02-16T20:04:00.462Z,20.73
2023-02-16T20:06:29.864Z,19.80
2023-02-16T20:08:57.613Z,22.60
2023-02-16T20:11:26.149Z,23.50
2023-02-16T20:13:54.117Z,21.57
2023-02-16T20:16:21.831Z,16.37
2023-02-16T20:18:49.973Z,19.20
2023-02-16T20:21:18.892Z,19.77
2023-02-16T20:23:46.813Z,21.37
2023-02-16T20:26:16.239Z,20.83
2023-02-16T20:28:43.789Z,17.73
2023-02-16T20:31:15.826Z,19.77
2023-02-16T20:33:43.660Z,21.63
2023-02-16T20:36:11.372Z,23.30
2023-02-16T20:38:39.077Z,19.47
2023-02-16T20:41:06.541Z,19.67
2023-02-16T20:43:34.632Z,23.60
2023-02-16T20:46:02.873Z,21.00
2023-02-16T20:48:30.500Z,19.63
2023-02-16T20:50:58.846Z,21.17
2023-02-16T20:53:26.777Z,23.70
2023-02-16T20:56:01.747Z,20.57
2023-02-16T20:58:29.281Z,20.17
2023-02-16T21:00:57.104Z,28.93
2023-02-16T21:03:25.227Z,25.67
2023-02-16T21:05:52.666Z,22.87
2023-02-16T21:08:20.371Z,22.57
2023-02-16T21:10:47.909Z,22.57
2023-02-16T21:13:15.549Z,22.50
2023-02-16T21:15:43.027Z,19.53
2023-02-16T21:18:10.813Z,21.10
2023-02-16T21:20:38.243Z,22.47
2023-02-16T21:23:07.147Z,22.97
2023-02-16T21:25:34.765Z,23.87
2023-02-16T21:28:02.266Z,25.80
2023-02-16T21:30:29.846Z,20.47
2023-02-16T21:32:57.410Z,23.90
2023-02-16T21:35:24.859Z,21.50
2023-02-16T21:37:52.395Z,25.60
2023-02-16T21:40:38.731Z,25.27
2023-02-16T21:43:06.237Z,23.30
2023-02-16T21:45:33.706Z,24.27
2023-02-16T21:48:19.786Z,24.00
2023-02-16T21:50:47.313Z,26.17
2023-02-16T21:53:14.774Z,27.53
2023-02-16T21:56:01.159Z,24.57
2023-02-16T21:58:30.300Z,20.83
2023-02-16T22:00:57.755Z,21.77
2023-02-16T22:03:26.000Z,26.30
2023-02-16T22:05:53.395Z,22.37
2023-02-16T22:08:20.856Z,23.60
2023-02-16T22:10:48.342Z,25.97
2023-02-16T22:13:16.303Z,23.10
2023-02-16T22:15:43.722Z,25.00
2023-02-16T22:18:11.227Z,26.47
2023-02-16T22:20:38.638Z,25.37
2023-02-16T22:23:06.117Z,25.13
2023-02-16T22:25:33.637Z,21.43
2023-02-16T22:28:01.172Z,25.37
2023-02-16T22:30:28.699Z,23.87
2023-02-16T22:32:56.226Z,21.53
2023-02-16T22:35:24.000Z,23.20
2023-02-16T22:37:51.481Z,22.03
2023-02-16T22:40:19.069Z,22.73
2023-02-16T22:42:46.580Z,23.40
2023-02-16T22:45:14.028Z,19.30
2023-02-16T22:47:41.527Z,25.70
2023-02-16T22:50:09.156Z,30.33
2023-02-16T22:52:38.211Z,25.43
2023-02-16T22:55:06.378Z,28.17
2023-02-16T22:57:39.974Z,24.20
2023-02-16T23:00:09.781Z,30.00
2023-02-16T23:02:37.853Z,25.10
2023-02-16T23:05:05.656Z,24.97
2023-02-16T23:07:33.981Z,23.93
2023-02-16T23:10:01.931Z,26.13
2023-02-16T23:12:29.369Z,24.57
2023-02-16T23:14:56.813Z,29.13
2023-02-16T23:17:24.254Z,31.30
2023-02-16T23:19:51.750Z,27.27
2023-02-16T23:22:19.181Z,29.73
2023-02-16T23:25:06.586Z,30.60
2023-02-16T23:27:34.761Z,24.57
2023-02-16T23:30:02.269Z,28.40
2023-02-16T23:32:29.781Z,24.90
2023-02-16T23:34:59.785Z,25.63
2023-02-16T23:37:31.518Z,21.47
2023-02-16T23:39:59.424Z,21.30
2023-02-16T23:42:26.866Z,26.47
2023-02-16T23:44:55.511Z,26.07
2023-02-16T23:47:23.025Z,25.03
2023-02-16T23:49:50.567Z,23.60
2023-02-16T23:52:18.377Z,26.33
2023-02-16T23:54:45.998Z,26.17
2023-02-16T23:57:13.417Z,25.00
2023-02-16T23:59:41.167Z,20.67
